Time;durP1;ratioP1;P1;durP2;ratioP2;P2;SDS_P1;SDS_P2;PMS_P1;PMS_P2;Temp;Humidity;BMP_temperature;BMP_pressure;BME280_temperature;BME280_humidity;BME280_pressure;Samples;Min_cycle;Max_cycle;Signal;HPM_P1;HPM_P2
2023/06/25 00:01:07;;;;;;;36.40;32.90;;;18.80;1.00;;;;;;4969960;28;20526;-76
2023/06/25 00:03:34;;;;;;;27.03;24.47;;;18.80;1.00;;;;;;4971949;28;20566;-76
2023/06/25 00:06:01;;;;;;;22.60;20.40;;;18.80;1.00;;;;;;4972216;28;20466;-77
2023/06/25 00:08:28;;;;;;;26.47;24.17;;;18.70;1.00;;;;;;4970545;28;20462;-77
2023/06/25 00:10:55;;;;;;;20.23;18.20;;;18.70;1.00;;;;;;4970634;28;20538;-77
2023/06/25 00:13:22;;;;;;;18.47;16.87;;;18.70;1.00;;;;;;4972451;28;20559;-74
2023/06/25 00:15:50;;;;;;;17.20;15.57;;;18.70;1.00;;;;;;4973875;28;20467;-78
2023/06/25 00:18:17;;;;;;;17.27;15.80;;;18.70;1.00;;;;;;4973205;28;20498;-80
2023/06/25 00:20:46;;;;;;;19.17;17.37;;;18.70;1.00;;;;;;4969686;28;20471;-78
2023/06/25 00:23:13;;;;;;;18.37;16.80;;;18.70;1.00;;;;;;4974040;28;20466;-78
2023/06/25 00:25:40;;;;;;;19.57;17.83;;;18.70;1.00;;;;;;4962330;28;21224;-78
2023/06/25 00:28:08;;;;;;;19.67;18.07;;;18.70;1.00;;;;;;4969871;28;20497;-78
2023/06/25 00:30:36;;;;;;;21.33;19.30;;;18.70;1.00;;;;;;4973138;28;20867;-78
2023/06/25 00:33:04;;;;;;;20.87;18.87;;;18.80;1.00;;;;;;4974081;28;20464;-77
2023/06/25 00:36:02;;;;;;;19.13;17.50;;;18.80;1.00;;;;;;4973932;28;21401;-78
2023/06/25 00:38:28;;;;;;;20.27;18.10;;;18.80;1.00;;;;;;4973345;28;20431;-78
2023/06/25 00:40:56;;;;;;;20.37;18.60;;;18.90;1.00;;;;;;4973545;28;20487;-77
2023/06/25 00:43:23;;;;;;;20.67;18.73;;;18.90;1.00;;;;;;4972835;28;21038;-77
2023/06/25 00:45:50;;;;;;;18.30;16.70;;;19.00;1.00;;;;;;4969835;28;20945;-74
2023/06/25 00:48:21;;;;;;;21.33;19.30;;;19.00;1.00;;;;;;4968654;28;20570;-74
2023/06/25 00:50:49;;;;;;;20.10;18.33;;;19.10;1.00;;;;;;4970410;28;20483;-74
2023/06/25 00:53:16;;;;;;;21.40;19.70;;;19.10;1.00;;;;;;4973559;28;20480;-74
2023/06/25 00:55:50;;;;;;;41.47;37.13;;;19.20;1.00;;;;;;4969453;28;20462;-75
2023/06/25 00:58:20;;;;;;;25.07;22.90;;;19.30;1.00;;;;;;4970305;28;20552;-74
2023/06/25 01:00:48;;;;;;;22.43;20.13;;;19.30;1.00;;;;;;4970136;28;20478;-71
2023/06/25 01:03:26;;;;;;;24.53;22.33;;;19.40;1.00;;;;;;4978970;23;20538;-75
2023/06/25 01:06:01;;;;;;;22.27;20.40;;;19.50;1.00;;;;;;4970776;28;20470;-76
2023/06/25 01:08:29;;;;;;;21.33;19.43;;;19.60;1.00;;;;;;4971432;28;20463;-75
2023/06/25 01:10:57;;;;;;;21.60;19.70;;;19.60;1.00;;;;;;4969821;28;21019;-76
2023/06/25 01:13:24;;;;;;;21.60;19.70;;;19.60;1.00;;;;;;4969949;28;20455;-75
2023/06/25 01:15:51;;;;;;;22.13;20.23;;;19.60;1.00;;;;;;4973725;28;20480;-76
2023/06/25 01:18:22;;;;;;;20.87;19.13;;;19.60;1.00;;;;;;4971419;28;20522;-76
2023/06/25 01:20:52;;;;;;;23.17;20.80;;;19.60;1.00;;;;;;4971867;28;20477;-76
2023/06/25 01:23:21;;;;;;;21.57;19.67;;;19.60;1.00;;;;;;4973028;28;20444;-77
2023/06/25 01:25:48;;;;;;;21.87;19.90;;;19.60;1.00;;;;;;4971998;28;20554;-77
2023/06/25 01:28:19;;;;;;;22.07;20.00;;;19.60;1.00;;;;;;4970814;28;20529;-78
2023/06/25 01:30:47;;;;;;;22.10;20.10;;;19.60;1.00;;;;;;4970935;28;21337;-76
2023/06/25 01:33:16;;;;;;;22.87;20.93;;;19.60;1.00;;;;;;4973680;28;20626;-76
2023/06/25 01:35:43;;;;;;;23.53;21.33;;;19.60;1.00;;;;;;4972448;28;20591;-76
2023/06/25 01:38:10;;;;;;;25.77;23.50;;;19.60;1.00;;;;;;4970591;28;20471;-75
2023/06/25 01:40:38;;;;;;;23.80;21.77;;;19.60;1.00;;;;;;4971287;28;20477;-74
2023/06/25 01:43:06;;;;;;;22.87;20.87;;;19.70;1.00;;;;;;4973208;28;20501;-76
2023/06/25 01:45:33;;;;;;;23.73;21.57;;;19.70;1.00;;;;;;4973569;28;20468;-75
2023/06/25 01:48:00;;;;;;;24.80;22.40;;;19.70;1.00;;;;;;4972734;28;20564;-75
2023/06/25 01:50:27;;;;;;;23.00;21.00;;;19.70;1.00;;;;;;4971552;28;20472;-75
2023/06/25 01:52:54;;;;;;;26.10;23.90;;;19.80;1.00;;;;;;4971434;28;20499;-76
2023/06/25 01:55:21;;;;;;;24.00;21.70;;;19.80;1.00;;;;;;4971079;28;20493;-75
2023/06/25 01:57:49;;;;;;;23.67;21.57;;;19.80;1.00;;;;;;4967120;28;20490;-75
2023/06/25 02:00:17;;;;;;;23.97;21.77;;;19.80;1.00;;;;;;4972057;28;20906;-75
2023/06/25 02:02:44;;;;;;;24.40;21.90;;;19.80;1.00;;;;;;4969526;28;20575;-75
2023/06/25 02:05:12;;;;;;;23.03;21.03;;;19.80;1.00;;;;;;4973811;28;20468;-75
2023/06/25 02:07:39;;;;;;;24.47;22.33;;;19.80;1.00;;;;;;4974815;28;20574;-76
2023/06/25 02:10:06;;;;;;;26.60;24.10;;;19.80;1.00;;;;;;4972796;28;20475;-75
2023/06/25 02:12:33;;;;;;;23.60;21.50;;;19.80;1.00;;;;;;4967729;28;20523;-75
2023/06/25 02:15:02;;;;;;;22.20;20.13;;;19.90;1.00;;;;;;4971595;28;20496;-76
2023/06/25 02:17:29;;;;;;;22.60;20.70;;;19.90;1.00;;;;;;4969648;28;20435;-75
2023/06/25 02:19:56;;;;;;;21.10;19.10;;;20.00;1.00;;;;;;4968367;28;20483;-74
2023/06/25 02:22:22;;;;;;;20.07;18.23;;;20.10;1.00;;;;;;4966048;28;20508;-76
2023/06/25 02:24:50;;;;;;;19.97;18.17;;;20.20;1.00;;;;;;4969579;28;20464;-75
2023/06/25 02:27:17;;;;;;;22.20;20.13;;;20.20;1.00;;;;;;4967892;28;20465;-75
2023/06/25 02:29:44;;;;;;;20.13;18.43;;;20.20;1.00;;;;;;4967831;28;20511;-76
2023/06/25 02:32:12;;;;;;;21.20;19.30;;;20.20;1.00;;;;;;4965002;28;22894;-77
2023/06/25 02:34:39;;;;;;;20.97;19.23;;;20.20;1.00;;;;;;4969250;28;20991;-76
2023/06/25 02:37:16;;;;;;;23.40;21.30;;;20.20;1.00;;;;;;4966713;28;21055;-76
2023/06/25 02:39:44;;;;;;;22.30;20.30;;;20.20;1.00;;;;;;4970221;28;20614;-75
2023/06/25 02:42:11;;;;;;;22.87;20.60;;;20.20;1.00;;;;;;4968747;28;20551;-75
2023/06/25 02:44:38;;;;;;;21.10;19.30;;;20.10;1.00;;;;;;4968547;28;20564;-75
2023/06/25 02:47:05;;;;;;;21.63;19.63;;;20.10;1.00;;;;;;4969768;28;20456;-75
2023/06/25 02:49:33;;;;;;;18.57;16.97;;;20.10;1.00;;;;;;4966495;28;20495;-77
2023/06/25 02:52:00;;;;;;;19.87;18.17;;;20.10;1.00;;;;;;4967725;28;20578;-75
2023/06/25 02:54:27;;;;;;;21.20;19.23;;;20.00;1.00;;;;;;4967007;28;20473;-74
2023/06/25 02:56:56;;;;;;;19.63;17.63;;;20.00;1.00;;;;;;4966012;28;20460;-75
2023/06/25 02:59:23;;;;;;;20.53;18.53;;;20.00;1.00;;;;;;4970495;28;21387;-75
2023/06/25 03:01:50;;;;;;;18.80;17.10;;;20.00;1.00;;;;;;4947076;28;20453;-74
2023/06/25 03:04:16;;;;;;;17.20;15.80;;;20.00;1.00;;;;;;4964488;28;20555;-75
2023/06/25 03:06:45;;;;;;;16.33;14.93;;;20.10;1.00;;;;;;4968499;28;20453;-76
2023/06/25 03:09:11;;;;;;;18.00;16.37;;;20.10;1.00;;;;;;4962508;28;20479;-75
2023/06/25 03:11:38;;;;;;;17.70;16.10;;;20.10;1.00;;;;;;4964045;28;20512;-75
2023/06/25 03:14:05;;;;;;;17.40;15.90;;;20.10;1.00;;;;;;4965165;28;20472;-75
2023/06/25 03:16:32;;;;;;;17.23;15.53;;;20.20;1.00;;;;;;4966859;28;20471;-76
2023/06/25 03:19:01;;;;;;;17.60;15.80;;;20.20;1.00;;;;;;4970648;28;20484;-75
2023/06/25 03:21:28;;;;;;;16.83;15.33;;;20.20;1.00;;;;;;4969481;28;20501;-75
2023/06/25 03:23:56;;;;;;;17.60;16.00;;;20.20;1.00;;;;;;4968391;28;20679;-76
2023/06/25 03:26:23;;;;;;;19.33;17.37;;;20.20;1.00;;;;;;4970931;28;20466;-72
2023/06/25 03:28:53;;;;;;;16.50;15.10;;;20.20;1.00;;;;;;4966829;28;20503;-74
2023/06/25 03:31:20;;;;;;;16.30;14.70;;;20.20;1.00;;;;;;4968435;28;20433;-76
2023/06/25 03:33:47;;;;;;;16.27;15.03;;;20.20;1.00;;;;;;4970065;28;20452;-76
2023/06/25 03:36:14;;;;;;;18.70;16.70;;;20.30;1.00;;;;;;4969885;28;20469;-74
2023/06/25 03:38:41;;;;;;;17.83;16.30;;;20.30;1.00;;;;;;4970010;28;20573;-75
2023/06/25 03:41:09;;;;;;;18.80;17.00;;;20.30;1.00;;;;;;4969445;28;20451;-76
2023/06/25 03:43:36;;;;;;;20.30;18.60;;;20.30;1.00;;;;;;4967681;28;20504;-76
2023/06/25 03:46:03;;;;;;;21.43;19.43;;;20.40;1.00;;;;;;4970406;28;20536;-78
2023/06/25 03:48:30;;;;;;;23.00;20.50;;;20.40;1.00;;;;;;4969851;28;20984;-74
2023/06/25 03:50:57;;;;;;;19.57;17.63;;;20.40;1.00;;;;;;4968630;28;20547;-75
2023/06/25 03:53:25;;;;;;;21.30;19.10;;;20.40;1.00;;;;;;4969334;28;20475;-74
2023/06/25 03:55:52;;;;;;;22.70;20.60;;;20.40;1.00;;;;;;4967015;28;20549;-75
2023/06/25 03:58:20;;;;;;;21.40;19.33;;;20.40;1.00;;;;;;4969142;28;20572;-75
2023/06/25 04:00:47;;;;;;;20.93;19.13;;;20.40;1.00;;;;;;4965054;28;20532;-76
2023/06/25 04:03:14;;;;;;;22.87;20.67;;;20.40;1.00;;;;;;4966722;28;20638;-76
2023/06/25 04:05:41;;;;;;;24.07;21.97;;;20.40;1.00;;;;;;4966061;28;20525;-76
2023/06/25 04:08:08;;;;;;;24.13;22.07;;;20.50;1.00;;;;;;4967937;28;20540;-74
2023/06/25 04:10:35;;;;;;;24.33;21.70;;;20.50;1.00;;;;;;4969102;28;20919;-75
2023/06/25 04:13:02;;;;;;;22.27;20.40;;;20.50;1.00;;;;;;4968182;28;20460;-76
2023/06/25 04:15:30;;;;;;;19.83;17.97;;;20.60;1.00;;;;;;4967701;28;20470;-75
2023/06/25 04:17:57;;;;;;;18.50;16.67;;;20.60;1.00;;;;;;4965350;28;20606;-75
2023/06/25 04:20:27;;;;;;;17.87;16.23;;;20.60;1.00;;;;;;4968438;28;20504;-74
2023/06/25 04:22:54;;;;;;;21.80;19.87;;;20.60;1.00;;;;;;4966371;28;20497;-75
2023/06/25 04:25:21;;;;;;;18.50;16.90;;;20.60;1.00;;;;;;4969858;28;20482;-75
2023/06/25 04:27:49;;;;;;;19.53;17.70;;;20.60;1.00;;;;;;4967302;28;20503;-76
2023/06/25 04:30:16;;;;;;;22.90;20.73;;;20.60;1.00;;;;;;4967386;28;20878;-75
2023/06/25 04:32:49;;;;;;;23.97;21.80;;;20.60;1.00;;;;;;4966356;28;20504;-75
2023/06/25 04:35:16;;;;;;;21.20;19.50;;;20.60;1.00;;;;;;4965340;28;20540;-76
2023/06/25 04:37:43;;;;;;;27.30;24.87;;;20.60;1.00;;;;;;4966433;28;20921;-75
2023/06/25 04:40:11;;;;;;;25.20;23.10;;;20.60;1.00;;;;;;4968131;28;20456;-76
2023/06/25 04:42:38;;;;;;;24.40;22.03;;;20.60;1.00;;;;;;4967593;28;20518;-75
2023/06/25 04:45:06;;;;;;;22.33;20.40;;;20.70;1.00;;;;;;4966643;28;20602;-76
2023/06/25 04:47:33;;;;;;;22.90;20.97;;;20.70;1.00;;;;;;4969404;28;20552;-75
2023/06/25 04:50:01;;;;;;;22.20;20.00;;;20.80;1.00;;;;;;4970417;28;20478;-75
2023/06/25 04:52:28;;;;;;;19.53;17.80;;;20.80;1.00;;;;;;4967783;28;21322;-74
2023/06/25 04:54:55;;;;;;;19.10;17.50;;;20.90;1.00;;;;;;4967048;28;20555;-75
2023/06/25 04:57:22;;;;;;;19.37;17.67;;;20.90;1.00;;;;;;4970035;28;20491;-75
2023/06/25 04:59:49;;;;;;;20.00;18.10;;;21.00;1.00;;;;;;4972302;28;20485;-76
2023/06/25 05:02:16;;;;;;;18.80;17.20;;;21.10;1.00;;;;;;4970205;28;20471;-75
2023/06/25 05:04:43;;;;;;;18.87;17.13;;;21.20;1.00;;;;;;4967810;28;22964;-75
2023/06/25 05:07:12;;;;;;;19.20;17.60;;;21.30;1.00;;;;;;4969468;28;20993;-75
2023/06/25 05:09:38;;;;;;;22.83;20.70;;;21.40;1.00;;;;;;4967817;28;20743;-75
2023/06/25 05:12:06;;;;;;;21.13;19.17;;;21.50;1.00;;;;;;4968221;28;21473;-74
2023/06/25 05:14:33;;;;;;;18.20;16.70;;;21.50;1.00;;;;;;4970323;28;20612;-75
2023/06/25 05:17:00;;;;;;;19.00;17.47;;;21.50;1.00;;;;;;4970668;28;20492;-74
2023/06/25 05:19:27;;;;;;;17.57;16.03;;;21.60;1.00;;;;;;4969502;28;20506;-74
2023/06/25 05:21:54;;;;;;;18.63;17.07;;;21.60;1.00;;;;;;4971762;28;20930;-75
2023/06/25 05:24:22;;;;;;;16.77;15.30;;;21.70;1.00;;;;;;4970596;28;20468;-75
2023/06/25 05:26:49;;;;;;;17.03;15.50;;;21.80;1.00;;;;;;4970111;28;20468;-76
2023/06/25 05:29:16;;;;;;;16.70;15.20;;;21.80;1.00;;;;;;4969765;28;20463;-76
2023/06/25 05:31:43;;;;;;;16.70;15.10;;;21.90;1.00;;;;;;4966005;28;20511;-74
2023/06/25 05:34:10;;;;;;;16.33;14.83;;;21.90;1.00;;;;;;4968699;28;20551;-75
2023/06/25 05:36:37;;;;;;;15.53;14.13;;;21.90;1.00;;;;;;4970075;28;20558;-76
2023/06/25 05:39:04;;;;;;;15.50;14.03;;;22.00;1.00;;;;;;4970657;28;20468;-77
2023/06/25 05:41:33;;;;;;;15.03;13.73;;;22.00;1.00;;;;;;4966946;28;20496;-74
2023/06/25 05:43:59;;;;;;;15.37;14.17;;;22.00;1.00;;;;;;4966846;28;20897;-76
2023/06/25 05:46:26;;;;;;;16.30;14.90;;;22.00;1.00;;;;;;4960880;28;20477;-75
2023/06/25 05:48:53;;;;;;;15.10;13.70;;;22.00;1.00;;;;;;4964521;28;21005;-76
2023/06/25 05:51:20;;;;;;;14.73;13.53;;;22.10;1.00;;;;;;4967356;28;20433;-76
2023/06/25 05:53:50;;;;;;;14.13;12.83;;;22.10;1.00;;;;;;4970194;28;20540;-77
2023/06/25 05:56:17;;;;;;;14.97;13.40;;;22.10;1.00;;;;;;4968985;28;22747;-77
2023/06/25 05:58:46;;;;;;;13.43;12.23;;;22.10;1.00;;;;;;4964527;28;20594;-77
2023/06/25 06:01:13;;;;;;;13.70;12.30;;;22.10;1.00;;;;;;4965740;28;20470;-77
2023/06/25 06:03:40;;;;;;;12.63;11.53;;;22.30;1.00;;;;;;4970368;28;20812;-76
2023/06/25 06:06:07;;;;;;;13.83;12.40;;;22.30;1.00;;;;;;4969198;28;20901;-76
2023/06/25 06:08:34;;;;;;;12.77;11.77;;;22.40;1.00;;;;;;4969995;28;20548;-75
2023/06/25 06:11:01;;;;;;;14.20;13.00;;;22.60;1.00;;;;;;4966303;28;20503;-76
2023/06/25 06:13:27;;;;;;;14.90;13.70;;;22.70;1.00;;;;;;4968303;28;20472;-75
2023/06/25 06:15:56;;;;;;;14.00;12.70;;;22.80;1.00;;;;;;4969075;28;20613;-76
2023/06/25 06:18:23;;;;;;;14.47;13.20;;;22.80;1.00;;;;;;4970217;28;20464;-75
2023/06/25 06:20:50;;;;;;;15.17;13.93;;;22.90;1.00;;;;;;4969288;28;20499;-76
2023/06/25 06:23:17;;;;;;;13.80;12.60;;;23.00;1.00;;;;;;4971466;28;20472;-77
2023/06/25 06:25:44;;;;;;;14.20;13.10;;;23.00;1.00;;;;;;4971020;28;20492;-76
2023/06/25 06:28:11;;;;;;;16.27;13.23;;;23.10;1.00;;;;;;4968222;28;20559;-76
2023/06/25 06:30:38;;;;;;;14.20;12.80;;;22.90;1.00;;;;;;4967175;28;20510;-76
2023/06/25 06:33:06;;;;;;;12.60;11.50;;;23.00;1.00;;;;;;4968824;28;20457;-76
2023/06/25 06:35:33;;;;;;;12.40;11.27;;;22.90;1.00;;;;;;4949993;28;20480;-77
2023/06/25 06:38:00;;;;;;;11.03;10.13;;;23.00;1.00;;;;;;4966488;28;21092;-77
2023/06/25 06:40:27;;;;;;;11.90;11.00;;;22.90;1.00;;;;;;4968056;28;21037;-76
2023/06/25 06:42:54;;;;;;;9.63;8.80;;;23.00;1.00;;;;;;4965345;28;20466;-76
2023/06/25 06:45:21;;;;;;;9.80;9.00;;;23.30;1.00;;;;;;4968134;28;20552;-77
2023/06/25 06:47:48;;;;;;;9.40;8.60;;;23.50;1.00;;;;;;4967227;28;20538;-76
2023/06/25 06:50:19;;;;;;;9.50;8.70;;;23.70;1.00;;;;;;4968150;28;20514;-76
2023/06/25 06:52:46;;;;;;;8.10;7.40;;;23.80;1.00;;;;;;4966179;28;20465;-76
2023/06/25 06:55:13;;;;;;;7.67;6.93;;;23.80;1.00;;;;;;4966344;28;20555;-75
2023/06/25 06:57:40;;;;;;;8.47;7.73;;;23.90;1.00;;;;;;4964064;28;20594;-75
2023/06/25 07:00:10;;;;;;;7.97;7.37;;;23.80;1.00;;;;;;4966545;28;20558;-76
2023/06/25 07:02:37;;;;;;;7.23;6.63;;;23.90;1.00;;;;;;4967253;28;20503;-78
2023/06/25 07:05:04;;;;;;;7.00;6.50;;;23.90;1.00;;;;;;4968174;28;20498;-77
2023/06/25 07:07:32;;;;;;;7.00;6.20;;;24.00;1.00;;;;;;4969112;28;20565;-76
2023/06/25 07:09:59;;;;;;;7.83;7.13;;;24.00;1.00;;;;;;4965322;28;20462;-79
2023/06/25 07:12:26;;;;;;;6.93;6.37;;;24.00;1.00;;;;;;4964864;28;20518;-75
2023/06/25 07:14:53;;;;;;;7.67;6.97;;;23.90;1.00;;;;;;4966176;28;20480;-76
2023/06/25 07:17:20;;;;;;;8.10;6.77;;;24.10;1.00;;;;;;4969766;28;20619;-77
2023/06/25 07:19:47;;;;;;;7.17;6.57;;;24.30;1.00;;;;;;4966832;28;20550;-76
2023/06/25 07:22:14;;;;;;;8.57;6.97;;;24.50;1.00;;;;;;4967540;28;20463;-76
2023/06/25 07:24:43;;;;;;;8.73;6.90;;;24.70;1.00;;;;;;4969542;28;20908;-77
2023/06/25 07:27:09;;;;;;;6.83;6.33;;;24.90;1.00;;;;;;4963883;28;20499;-74
2023/06/25 07:29:36;;;;;;;7.53;6.50;;;25.00;1.00;;;;;;4969330;28;22083;-77
2023/06/25 07:32:04;;;;;;;6.77;6.27;;;25.10;1.00;;;;;;4964346;28;20544;-76
2023/06/25 07:34:31;;;;;;;6.17;5.63;;;25.20;1.00;;;;;;4961707;28;21048;-76
2023/06/25 07:36:57;;;;;;;6.80;6.30;;;25.30;1.00;;;;;;4969314;28;20571;-79
2023/06/25 07:39:29;;;;;;;6.27;5.77;;;25.10;1.00;;;;;;4972327;28;20502;-77
2023/06/25 07:41:58;;;;;;;7.40;6.57;;;24.90;1.00;;;;;;4969102;28;20469;-77
2023/06/25 07:44:24;;;;;;;6.37;5.77;;;25.10;1.00;;;;;;4971284;28;20608;-78
2023/06/25 07:46:51;;;;;;;6.83;6.23;;;25.40;1.00;;;;;;4969317;28;20498;-78
2023/06/25 07:49:18;;;;;;;7.30;6.60;;;25.80;1.00;;;;;;4970678;28;20552;-79
2023/06/25 07:51:49;;;;;;;6.80;6.20;;;26.00;1.00;;;;;;4970821;28;20498;-77
2023/06/25 07:54:16;;;;;;;7.50;7.00;;;26.30;1.00;;;;;;4970018;28;20478;-77
2023/06/25 07:56:44;;;;;;;8.60;7.80;;;26.50;1.00;;;;;;4969349;28;20550;-79
2023/06/25 07:59:13;;;;;;;7.03;6.40;;;26.60;1.00;;;;;;4971827;28;22309;-78
2023/06/25 08:01:40;;;;;;;13.13;11.90;;;26.70;1.00;;;;;;4971758;28;20533;-77
2023/06/25 08:04:07;;;;;;;6.83;6.23;;;26.20;1.00;;;;;;4968010;28;20495;-79
2023/06/25 08:06:34;;;;;;;7.77;7.17;;;26.50;1.00;;;;;;4969180;28;20561;-80
2023/06/25 08:09:01;;;;;;;7.70;7.10;;;26.80;1.00;;;;;;4974371;28;20478;-79
2023/06/25 08:11:29;;;;;;;8.90;8.10;;;26.80;1.00;;;;;;4970390;28;20478;-79
2023/06/25 08:13:55;;;;;;;7.13;6.63;;;27.00;1.00;;;;;;4971400;28;20698;-77
2023/06/25 08:16:24;;;;;;;8.17;7.57;;;26.90;1.00;;;;;;4970818;28;20470;-78
2023/06/25 08:18:51;;;;;;;7.90;7.30;;;26.80;1.00;;;;;;4973574;28;20568;-79
2023/06/25 08:21:18;;;;;;;7.50;6.90;;;27.10;1.00;;;;;;4972978;28;21474;-78
2023/06/25 08:23:45;;;;;;;7.40;6.70;;;27.00;1.00;;;;;;4972644;28;20521;-79
2023/06/25 08:26:15;;;;;;;8.80;7.90;;;27.00;1.00;;;;;;4972019;28;20482;-79
2023/06/25 08:28:42;;;;;;;8.50;7.80;;;27.30;1.00;;;;;;4973396;28;20469;-80
2023/06/25 08:31:09;;;;;;;7.33;6.70;;;27.50;1.00;;;;;;4972602;28;20984;-78
2023/06/25 08:33:38;;;;;;;8.33;7.63;;;27.40;1.00;;;;;;4977943;28;20567;-79
2023/06/25 08:36:06;;;;;;;7.63;7.03;;;27.40;1.00;;;;;;4968793;28;20473;-78
2023/06/25 08:38:34;;;;;;;7.30;6.70;;;27.30;1.00;;;;;;4975594;28;20467;-78
2023/06/25 08:41:01;;;;;;;7.40;6.90;;;27.60;1.00;;;;;;4979266;28;20911;-79
2023/06/25 08:43:28;;;;;;;7.37;6.73;;;27.80;1.00;;;;;;4972855;28;20481;-78
2023/06/25 08:45:55;;;;;;;8.47;7.77;;;28.00;1.00;;;;;;4975942;28;20584;-78
2023/06/25 08:48:24;;;;;;;8.53;7.77;;;28.10;1.00;;;;;;4973530;28;20584;-79
2023/06/25 08:50:57;;;;;;;9.70;6.87;;;28.10;1.00;;;;;;4971967;28;21073;-78
2023/06/25 08:53:26;;;;;;;7.20;6.70;;;28.00;1.00;;;;;;4975289;28;20532;-77
2023/06/25 08:55:56;;;;;;;8.00;7.27;;;28.20;1.00;;;;;;4974272;28;20473;-81
2023/06/25 08:58:24;;;;;;;7.90;7.30;;;28.10;1.00;;;;;;4965116;28;21054;-79
2023/06/25 09:00:51;;;;;;;7.63;7.10;;;28.00;1.00;;;;;;4971819;28;20539;-80
2023/06/25 09:03:19;;;;;;;8.17;7.57;;;28.10;1.00;;;;;;4977411;28;20485;-78
2023/06/25 09:05:57;;;;;;;9.10;8.10;;;28.30;1.00;;;;;;4972859;28;20465;-79
2023/06/25 09:08:25;;;;;;;8.97;7.43;;;28.50;1.00;;;;;;4973157;28;20900;-79
2023/06/25 09:10:53;;;;;;;8.70;7.90;;;28.50;1.00;;;;;;4954527;28;20468;-79
2023/06/25 09:13:25;;;;;;;9.17;8.30;;;28.70;1.00;;;;;;4973065;28;20498;-79
2023/06/25 09:15:53;;;;;;;8.40;7.80;;;28.80;1.00;;;;;;4969910;28;20459;-80
2023/06/25 09:18:23;;;;;;;7.60;7.10;;;29.00;1.00;;;;;;4974764;28;20446;-77
2023/06/25 09:20:50;;;;;;;7.57;6.97;;;29.30;1.00;;;;;;4972863;28;20458;-80
2023/06/25 09:23:22;;;;;;;8.00;7.30;;;29.50;1.00;;;;;;4977362;28;20471;-78
2023/06/25 09:25:52;;;;;;;8.50;7.80;;;29.80;1.00;;;;;;4973599;28;20502;-80
2023/06/25 09:28:20;;;;;;;8.03;7.43;;;29.90;1.00;;;;;;4973291;28;20459;-79
2023/06/25 09:30:49;;;;;;;9.40;8.70;;;30.00;1.00;;;;;;4973235;28;21354;-78
2023/06/25 09:33:17;;;;;;;8.70;8.00;;;29.90;1.00;;;;;;4972218;28;20488;-78
2023/06/25 09:35:46;;;;;;;8.07;7.37;;;30.00;1.00;;;;;;4972046;28;20459;-78
2023/06/25 09:38:13;;;;;;;8.80;8.20;;;29.80;1.00;;;;;;4954304;28;20469;-79
2023/06/25 09:40:41;;;;;;;8.73;7.83;;;29.80;1.00;;;;;;4971489;28;20483;-79
2023/06/25 09:43:09;;;;;;;8.40;7.80;;;30.00;1.00;;;;;;4972929;28;20892;-77
2023/06/25 09:45:37;;;;;;;7.90;7.30;;;30.30;1.00;;;;;;4973880;28;20566;-79
2023/06/25 09:48:09;;;;;;;8.57;7.80;;;30.40;1.00;;;;;;4973977;28;20475;-77
2023/06/25 09:50:39;;;;;;;8.70;8.00;;;30.70;1.00;;;;;;4970536;28;20490;-79
2023/06/25 09:53:12;;;;;;;8.00;7.30;;;31.60;1.00;;;;;;4973690;28;20979;-79
2023/06/25 09:55:41;;;;;;;8.20;7.60;;;32.60;1.00;;;;;;4958231;28;20607;-80
2023/06/25 09:58:10;;;;;;;8.30;7.70;;;33.20;1.00;;;;;;4973426;28;20554;-77
2023/06/25 10:00:39;;;;;;;7.63;7.13;;;33.20;1.00;;;;;;4972363;28;20456;-80
2023/06/25 10:03:06;;;;;;;8.07;7.47;;;33.30;1.00;;;;;;4975605;28;20460;-78
2023/06/25 10:05:35;;;;;;;11.70;10.80;;;33.80;1.00;;;;;;4971160;28;20459;-80
2023/06/25 10:08:03;;;;;;;8.10;7.37;;;34.10;1.00;;;;;;4973700;28;20507;-80
2023/06/25 10:10:31;;;;;;;7.90;7.23;;;34.20;1.00;;;;;;4971824;28;20460;-78
2023/06/25 10:13:03;;;;;;;7.13;6.60;;;34.30;1.00;;;;;;4971966;28;20982;-79
2023/06/25 10:15:31;;;;;;;7.90;7.40;;;34.40;1.00;;;;;;4973141;28;20470;-79
2023/06/25 10:18:00;;;;;;;8.00;7.27;;;34.90;1.00;;;;;;4971484;28;20463;-79
2023/06/25 10:20:28;;;;;;;7.80;7.20;;;35.80;1.00;;;;;;4971812;28;20527;-79
2023/06/25 10:23:05;;;;;;;7.33;6.77;;;37.10;1.00;;;;;;4975172;28;20466;-77
2023/06/25 10:25:32;;;;;;;8.20;7.50;;;38.00;1.00;;;;;;4969021;28;20462;-80
2023/06/25 10:28:06;;;;;;;6.43;5.93;;;38.60;1.00;;;;;;4972729;28;20503;-78
2023/06/25 10:30:40;;;;;;;7.17;6.67;;;39.20;1.00;;;;;;4971774;28;20484;-78
2023/06/25 10:33:08;;;;;;;6.87;6.27;;;39.40;1.00;;;;;;4973349;28;20563;-78
2023/06/25 10:35:40;;;;;;;7.10;5.97;;;39.20;1.00;;;;;;4951614;28;20491;-78
2023/06/25 10:38:07;;;;;;;6.70;6.10;;;39.00;1.00;;;;;;4971530;28;20478;-79
2023/06/25 10:40:35;;;;;;;7.23;6.73;;;39.40;1.00;;;;;;4969162;28;20518;-78
2023/06/25 10:43:04;;;;;;;5.80;5.40;;;39.60;1.00;;;;;;4969965;28;20460;-81
2023/06/25 10:45:32;;;;;;;7.60;6.80;;;39.80;1.00;;;;;;4962043;28;20910;-79
2023/06/25 10:48:05;;;;;;;6.37;5.97;;;39.40;1.00;;;;;;4972786;28;20492;-79
2023/06/25 10:50:34;;;;;;;6.87;6.37;;;38.80;1.00;;;;;;4952880;28;20777;-79
2023/06/25 10:53:02;;;;;;;7.50;6.90;;;38.70;1.00;;;;;;4969956;28;20475;-79
2023/06/25 10:55:29;;;;;;;6.70;6.10;;;39.40;1.00;;;;;;4972621;28;20494;-74
2023/06/25 10:57:57;;;;;;;6.80;6.30;;;40.40;1.00;;;;;;4970693;28;20479;-79
2023/06/25 11:00:27;;;;;;;6.20;5.80;;;40.90;1.00;;;;;;4970703;28;20465;-79
2023/06/25 11:02:55;;;;;;;6.87;6.27;;;40.40;1.00;;;;;;4969113;28;20460;-80
2023/06/25 11:05:31;;;;;;;6.87;6.30;;;40.70;1.00;;;;;;4978021;28;20551;-80
2023/06/25 11:08:00;;;;;;;5.87;5.47;;;39.90;1.00;;;;;;4970552;28;20503;-81
2023/06/25 11:10:27;;;;;;;6.70;6.20;;;39.40;1.00;;;;;;4969567;28;20484;-78
2023/06/25 11:12:55;;;;;;;6.10;5.70;;;39.60;1.00;;;;;;4965249;28;20562;-80
2023/06/25 11:15:22;;;;;;;8.13;6.90;;;38.70;1.00;;;;;;4955599;28;20459;-79
2023/06/25 11:17:52;;;;;;;6.70;6.10;;;37.60;1.00;;;;;;4969169;28;20503;-79
2023/06/25 11:20:22;;;;;;;6.20;5.80;;;36.70;1.00;;;;;;4959088;28;20527;-79
2023/06/25 11:22:50;;;;;;;6.40;6.00;;;35.50;1.00;;;;;;4964725;28;20523;-81
2023/06/25 11:25:17;;;;;;;6.40;5.90;;;35.40;1.00;;;;;;4968328;28;20436;-78
2023/06/25 11:27:44;;;;;;;6.00;5.50;;;35.70;1.00;;;;;;4969587;28;22074;-79
2023/06/25 11:30:11;;;;;;;6.60;6.00;;;36.10;1.00;;;;;;4971334;28;20470;-78
2023/06/25 11:32:39;;;;;;;5.93;5.43;;;35.80;1.00;;;;;;4971105;28;21002;-80
2023/06/25 11:35:12;;;;;;;5.60;5.20;;;35.10;1.00;;;;;;4974343;28;20539;-79
2023/06/25 11:37:47;;;;;;;6.83;6.13;;;34.20;1.00;;;;;;4962579;28;21130;-79
2023/06/25 11:40:24;;;;;;;6.40;6.00;;;33.20;1.00;;;;;;4970891;28;20455;-79
2023/06/25 11:42:52;;;;;;;6.60;6.03;;;32.50;1.00;;;;;;4969382;28;20467;-80
2023/06/25 11:45:20;;;;;;;7.13;6.53;;;32.20;1.00;;;;;;4969507;28;20929;-83
2023/06/25 11:47:50;;;;;;;6.40;5.80;;;32.10;1.00;;;;;;4969080;28;20485;-80
2023/06/25 11:50:22;;;;;;;7.37;6.77;;;32.10;1.00;;;;;;4971349;28;20468;-78
2023/06/25 11:52:49;;;;;;;6.60;6.00;;;32.40;1.00;;;;;;4970465;28;20992;-79
2023/06/25 11:55:18;;;;;;;8.73;6.90;;;32.80;1.00;;;;;;4970909;28;20487;-80
2023/06/25 11:57:47;;;;;;;7.17;6.67;;;33.00;1.00;;;;;;4971252;28;20464;-79
2023/06/25 12:00:15;;;;;;;6.80;6.30;;;32.90;1.00;;;;;;4968242;28;20890;-80
2023/06/25 12:02:41;;;;;;;6.67;6.17;;;32.90;1.00;;;;;;4971906;28;20476;-79
2023/06/25 12:05:09;;;;;;;9.53;8.53;;;33.30;1.00;;;;;;4969973;28;20448;-78
2023/06/25 12:07:38;;;;;;;7.27;6.63;;;33.90;1.00;;;;;;4973503;28;20505;-78
2023/06/25 12:10:06;;;;;;;6.83;6.27;;;33.80;1.00;;;;;;4971241;28;20483;-79
2023/06/25 12:12:34;;;;;;;6.80;6.20;;;33.50;1.00;;;;;;4968972;28;20507;-80
2023/06/25 12:15:01;;;;;;;9.00;8.10;;;33.30;1.00;;;;;;4974310;28;20460;-80
2023/06/25 12:17:29;;;;;;;7.87;7.27;;;33.00;1.00;;;;;;4971117;28;20472;-81
2023/06/25 12:19:58;;;;;;;6.83;6.30;;;32.70;1.00;;;;;;4971163;28;20881;-78
2023/06/25 12:22:25;;;;;;;7.10;6.50;;;32.50;1.00;;;;;;4966990;28;20492;-78
2023/06/25 12:24:53;;;;;;;7.80;7.00;;;33.60;1.00;;;;;;4969335;28;20485;-80
2023/06/25 12:27:20;;;;;;;6.73;6.13;;;34.40;1.00;;;;;;4954395;28;20562;-80
2023/06/25 12:29:47;;;;;;;6.27;5.87;;;34.70;1.00;;;;;;4970492;28;20470;-80
2023/06/25 12:32:14;;;;;;;6.43;5.83;;;34.30;1.00;;;;;;4970066;28;20991;-79
2023/06/25 12:34:41;;;;;;;6.93;6.33;;;33.70;1.00;;;;;;4953175;28;20456;-79
2023/06/25 12:37:08;;;;;;;15.13;6.63;;;33.40;1.00;;;;;;4971080;28;20555;-78
2023/06/25 12:39:35;;;;;;;8.43;7.07;;;32.80;1.00;;;;;;4968512;28;21651;-79
2023/06/25 12:42:05;;;;;;;8.23;7.27;;;32.40;1.00;;;;;;4971597;28;20482;-80
2023/06/25 12:44:32;;;;;;;8.13;7.43;;;31.90;1.00;;;;;;4969965;28;20463;-78
2023/06/25 12:46:59;;;;;;;8.00;7.13;;;31.30;1.00;;;;;;4967630;28;20479;-80
2023/06/25 12:49:26;;;;;;;7.90;7.10;;;30.90;1.00;;;;;;4973714;28;20570;-80